createdAt,value
2022-12-25T00:01:24.196Z,98484.22
2022-12-25T00:03:51.968Z,98483.16
2022-12-25T00:06:20.359Z,98486.72
2022-12-25T00:08:47.758Z,98487.69
2022-12-25T00:11:18.072Z,98485.50
2022-12-25T00:13:45.828Z,98481.72
2022-12-25T00:16:23.467Z,98484.78
2022-12-25T00:18:51.700Z,98486.41
2022-12-25T00:21:19.907Z,98494.78
2022-12-25T00:23:47.732Z,98503.66
2022-12-25T00:26:17.397Z,98496.00
2022-12-25T00:28:44.830Z,98492.53
2022-12-25T00:31:17.460Z,98488.44
2022-12-25T00:33:46.607Z,98487.91
2022-12-25T00:36:15.339Z,98476.56
2022-12-25T00:38:43.365Z,98472.25
2022-12-25T00:41:12.909Z,98469.06
2022-12-25T00:43:41.966Z,98472.00
2022-12-25T00:46:11.230Z,98476.25
2022-12-25T00:48:39.271Z,98474.31
2022-12-25T00:51:08.426Z,98471.78
2022-12-25T00:53:35.870Z,98463.94
2022-12-25T00:56:05.793Z,98462.97
2022-12-25T00:58:34.336Z,98458.25
2022-12-25T01:01:02.978Z,98470.13
2022-12-25T01:03:30.671Z,98476.38
2022-12-25T01:06:06.401Z,98472.59
2022-12-25T01:08:36.343Z,98471.66
2022-12-25T01:11:06.448Z,98472.53
2022-12-25T01:13:36.007Z,98468.28
2022-12-25T01:16:10.606Z,98457.50
2022-12-25T01:18:38.470Z,98477.50
2022-12-25T01:21:16.166Z,98461.56
2022-12-25T01:23:44.197Z,98476.56
2022-12-25T01:26:13.214Z,98478.34
2022-12-25T01:28:41.060Z,98470.28
2022-12-25T01:31:13.918Z,98478.16
2022-12-25T01:33:42.932Z,98477.97
2022-12-25T01:36:22.228Z,98492.50
2022-12-25T01:38:50.329Z,98491.94
2022-12-25T01:41:20.173Z,98492.19
2022-12-25T01:44:00.424Z,98494.28
2022-12-25T01:46:27.842Z,98496.47
2022-12-25T01:48:56.081Z,98502.28
2022-12-25T01:51:50.877Z,98507.94
2022-12-25T01:54:24.740Z,98509.13
2022-12-25T01:56:54.076Z,98506.31
2022-12-25T01:59:24.780Z,98502.28
2022-12-25T02:01:52.446Z,98494.78
2022-12-25T02:04:40.082Z,98498.47
2022-12-25T02:07:09.200Z,98500.97
2022-12-25T02:09:37.765Z,98491.53
2022-12-25T02:12:05.945Z,98500.44
2022-12-25T02:14:35.495Z,98502.19
2022-12-25T02:17:17.793Z,98503.31
2022-12-25T02:19:50.988Z,98509.03
2022-12-25T02:22:55.571Z,98509.34
2022-12-25T02:25:47.701Z,98505.50
2022-12-25T02:28:45.935Z,98487.50
2022-12-25T02:31:15.229Z,98486.22
2022-12-25T02:34:04.957Z,98480.31
2022-12-25T02:36:45.445Z,98479.19
2022-12-25T02:39:44.937Z,98489.94
2022-12-25T02:42:16.783Z,98485.19
2022-12-25T02:45:03.784Z,98486.69
2022-12-25T02:47:50.883Z,98476.16
2022-12-25T02:50:37.096Z,98481.88
2022-12-25T02:53:24.973Z,98468.91
2022-12-25T02:56:12.111Z,98470.56
2022-12-25T02:58:58.987Z,98470.16
2022-12-25T03:01:52.005Z,98478.50
2022-12-25T03:04:40.215Z,98479.13
2022-12-25T03:07:14.695Z,98480.88
2022-12-25T03:10:04.511Z,98479.75
2022-12-25T03:12:57.473Z,98473.25
2022-12-25T03:15:48.071Z,98473.81
2022-12-25T03:18:18.348Z,98461.69
2022-12-25T03:21:04.037Z,98461.59
2022-12-25T03:23:52.462Z,98458.97
2022-12-25T03:26:38.189Z,98458.69
2022-12-25T03:29:05.588Z,98448.56
2022-12-25T03:31:51.404Z,98454.56
2022-12-25T03:34:46.512Z,98452.69
2022-12-25T03:37:41.558Z,98450.47
2022-12-25T03:41:13.135Z,98441.53
2022-12-25T03:44:11.374Z,98444.66
2022-12-25T03:47:04.957Z,98447.63
2022-12-25T03:50:01.086Z,98447.41
2022-12-25T03:52:47.992Z,98436.66
2022-12-25T03:55:34.587Z,98441.31
2022-12-25T03:58:20.381Z,98436.22
2022-12-25T04:01:06.248Z,98437.09
2022-12-25T04:03:52.230Z,98438.97
2022-12-25T04:06:37.991Z,98434.34
2022-12-25T04:09:24.170Z,98428.78
2022-12-25T04:12:10.032Z,98427.19
2022-12-25T04:14:55.914Z,98428.69
2022-12-25T04:17:41.725Z,98421.19
2022-12-25T04:20:28.099Z,98426.06
2022-12-25T04:23:14.022Z,98415.13
2022-12-25T04:25:59.860Z,98414.19
2022-12-25T04:28:45.770Z,98419.88
2022-12-25T04:31:31.772Z,98415.22
2022-12-25T04:34:17.590Z,98407.22
2022-12-25T04:36:45.028Z,98402.69
2022-12-25T04:39:12.441Z,98391.75
2022-12-25T04:41:39.845Z,98394.06
2022-12-25T04:44:07.242Z,98397.66
2022-12-25T04:46:34.630Z,98403.00
2022-12-25T04:49:01.954Z,98414.91
2022-12-25T04:51:29.304Z,98405.44
2022-12-25T04:53:56.808Z,98397.75
2022-12-25T04:56:24.242Z,98396.16
2022-12-25T04:58:51.605Z,98393.63
2022-12-25T05:01:18.987Z,98399.22
2022-12-25T05:03:46.399Z,98394.81
2022-12-25T05:06:13.753Z,98389.53
2022-12-25T05:08:41.307Z,98390.59
2022-12-25T05:11:10.421Z,98398.59
2022-12-25T05:13:38.333Z,98396.06
2022-12-25T05:16:07.301Z,98385.44
2022-12-25T05:18:34.772Z,98382.56
2022-12-25T05:21:02.175Z,98380.59
2022-12-25T05:23:29.569Z,98375.53
2022-12-25T05:25:57.004Z,98371.84
2022-12-25T05:28:24.382Z,98374.56
2022-12-25T05:30:51.862Z,98371.38
2022-12-25T05:33:19.230Z,98370.03
2022-12-25T05:35:46.550Z,98368.88
2022-12-25T05:38:13.859Z,98364.13
2022-12-25T05:40:41.391Z,98363.38
2022-12-25T05:43:09.357Z,98361.38
2022-12-25T05:45:36.971Z,98361.28
2022-12-25T05:48:04.367Z,98360.63
2022-12-25T05:50:31.692Z,98346.63
2022-12-25T05:53:09.091Z,98352.22
2022-12-25T05:55:43.501Z,98343.78
2022-12-25T05:58:12.643Z,98344.72
2022-12-25T06:00:40.783Z,98338.34
2022-12-25T06:03:08.201Z,98333.47
2022-12-25T06:05:39.254Z,98332.00
2022-12-25T06:08:07.024Z,98326.84
2022-12-25T06:10:34.321Z,98323.03
2022-12-25T06:13:01.854Z,98319.16
2022-12-25T06:15:29.382Z,98324.19
2022-12-25T06:17:56.689Z,98322.16
2022-12-25T06:20:24.084Z,98318.81
2022-12-25T06:22:51.455Z,98329.25
2022-12-25T06:25:19.177Z,98338.84
2022-12-25T06:27:46.511Z,98331.03
2022-12-25T06:30:14.206Z,98327.00
2022-12-25T06:32:41.584Z,98319.03
2022-12-25T06:35:09.380Z,98319.75
2022-12-25T06:37:36.665Z,98313.81
2022-12-25T06:40:04.253Z,98314.66
2022-12-25T06:42:31.665Z,98316.56
2022-12-25T06:44:59.043Z,98319.53
2022-12-25T06:47:26.399Z,98314.88
2022-12-25T06:49:53.769Z,98325.56
2022-12-25T06:52:21.089Z,98332.34
2022-12-25T06:54:48.464Z,98328.78
2022-12-25T06:57:15.775Z,98330.69
2022-12-25T06:59:43.046Z,98328.78
2022-12-25T07:02:19.458Z,98326.50
2022-12-25T07:04:47.181Z,98334.00
2022-12-25T07:07:15.022Z,98337.19
2022-12-25T07:09:42.721Z,98331.38
2022-12-25T07:12:23.587Z,98333.19
2022-12-25T07:14:53.405Z,98337.94
2022-12-25T07:17:21.494Z,98332.69
2022-12-25T07:19:49.257Z,98338.97
2022-12-25T07:22:17.009Z,98346.88
2022-12-25T07:24:44.433Z,98352.75
2022-12-25T07:27:11.908Z,98360.56
2022-12-25T07:29:39.252Z,98357.41
2022-12-25T07:32:07.085Z,98350.16
2022-12-25T07:34:34.497Z,98349.19
2022-12-25T07:37:01.939Z,98346.94
2022-12-25T07:39:29.441Z,98345.78
2022-12-25T07:41:56.797Z,98345.03
2022-12-25T07:44:27.961Z,98333.59
2022-12-25T07:46:55.244Z,98328.66
2022-12-25T07:49:22.658Z,98334.16
2022-12-25T07:51:50.147Z,98321.19
2022-12-25T07:54:17.627Z,98330.13
2022-12-25T07:56:45.021Z,98322.59
2022-12-25T07:59:12.395Z,98318.13
2022-12-25T08:01:39.909Z,98304.34
2022-12-25T08:04:08.303Z,98311.22
2022-12-25T08:06:36.221Z,98297.28
2022-12-25T08:09:09.844Z,98290.97
2022-12-25T08:11:37.683Z,98291.47
2022-12-25T08:14:09.043Z,98286.31
2022-12-25T08:16:39.735Z,98290.44
2022-12-25T08:19:08.077Z,98292.53
2022-12-25T08:21:35.455Z,98316.84
2022-12-25T08:24:03.232Z,98312.94
2022-12-25T08:26:30.726Z,98314.63
2022-12-25T08:28:58.047Z,98307.94
2022-12-25T08:31:27.963Z,98309.00
2022-12-25T08:33:57.131Z,98310.72
2022-12-25T08:36:24.966Z,98311.50
2022-12-25T08:38:56.973Z,98310.00
2022-12-25T08:41:26.639Z,98307.72
2022-12-25T08:43:54.323Z,98304.75
2022-12-25T08:46:21.773Z,98310.41
2022-12-25T08:48:50.166Z,98331.47
2022-12-25T08:51:21.641Z,98331.31
2022-12-25T08:53:50.756Z,98320.94
2022-12-25T08:56:18.953Z,98321.25
2022-12-25T08:58:46.631Z,98318.44
2022-12-25T09:01:14.287Z,98316.72
2022-12-25T09:03:42.977Z,98310.63
2022-12-25T09:06:13.113Z,98305.84
2022-12-25T09:08:47.735Z,98299.03
2022-12-25T09:11:16.215Z,98293.66
2022-12-25T09:13:43.647Z,98274.97
2022-12-25T09:16:13.464Z,98279.97
2022-12-25T09:18:41.226Z,98275.72
2022-12-25T09:21:11.127Z,98265.84
2022-12-25T09:23:38.492Z,98249.22
2022-12-25T09:26:07.795Z,98245.63
2022-12-25T09:28:35.397Z,98247.50
2022-12-25T09:31:03.690Z,98245.72
2022-12-25T09:33:31.219Z,98260.28
2022-12-25T09:36:00.916Z,98259.84
2022-12-25T09:38:28.915Z,98271.69
2022-12-25T09:41:03.641Z,98285.28
2022-12-25T09:43:33.789Z,98293.88
2022-12-25T09:46:03.099Z,98301.69
2022-12-25T09:48:32.905Z,98299.09
2022-12-25T09:51:07.286Z,98305.31
2022-12-25T09:53:43.466Z,98308.28
2022-12-25T09:56:18.316Z,98305.81
2022-12-25T09:58:45.947Z,98306.06
2022-12-25T10:01:13.270Z,98301.16
2022-12-25T10:03:59.238Z,98308.88
2022-12-25T10:06:54.774Z,98314.06
2022-12-25T10:10:01.493Z,98317.31
2022-12-25T10:12:42.692Z,98310.91
2022-12-25T10:15:22.280Z,98304.16
2022-12-25T10:18:20.923Z,98298.63
2022-12-25T10:20:53.076Z,98302.53
2022-12-25T10:23:27.231Z,98289.94
2022-12-25T10:25:55.311Z,98288.75
2022-12-25T10:28:42.306Z,98281.50
2022-12-25T10:31:37.356Z,98272.06
2022-12-25T10:34:06.035Z,98267.69
2022-12-25T10:36:33.571Z,98265.50
2022-12-25T10:39:00.626Z,98269.34
2022-12-25T10:42:08.894Z,98272.34
2022-12-25T10:44:36.455Z,98266.19
2022-12-25T10:47:05.463Z,98260.84
2022-12-25T10:49:41.741Z,98259.84
2022-12-25T10:52:25.918Z,98250.47
2022-12-25T10:54:53.760Z,98256.69
2022-12-25T10:57:24.635Z,98252.28
2022-12-25T10:59:58.093Z,98242.28
2022-12-25T11:02:29.435Z,98246.09
2022-12-25T11:05:06.229Z,98242.41
2022-12-25T11:07:53.824Z,98234.44
2022-12-25T11:10:43.899Z,98232.78
2022-12-25T11:13:29.757Z,98218.69
2022-12-25T11:16:12.153Z,98213.91
2022-12-25T11:18:48.736Z,98230.88
2022-12-25T11:21:31.744Z,98218.63
2022-12-25T11:24:04.591Z,98220.91
2022-12-25T11:26:45.920Z,98222.13
2022-12-25T11:29:22.089Z,98216.88
2022-12-25T11:31:51.544Z,98213.44
2022-12-25T11:34:45.577Z,98201.38
2022-12-25T11:37:35.612Z,98202.06
2022-12-25T11:40:03.440Z,98197.78
2022-12-25T11:42:37.757Z,98198.69
2022-12-25T11:45:11.421Z,98196.16
2022-12-25T11:47:47.007Z,98189.22
2022-12-25T11:50:29.403Z,98190.25
2022-12-25T11:53:02.142Z,98182.16
2022-12-25T11:55:44.794Z,98182.53
2022-12-25T11:58:29.392Z,98179.81
2022-12-25T12:00:59.241Z,98171.72
2022-12-25T12:03:40.934Z,98165.81
2022-12-25T12:06:31.006Z,98172.56
2022-12-25T12:09:23.850Z,98172.28
2022-12-25T12:12:09.022Z,98168.94
2022-12-25T12:14:53.785Z,98159.91
2022-12-25T12:17:21.065Z,98158.28
2022-12-25T12:19:48.111Z,98150.44
2022-12-25T12:22:25.531Z,98130.94
2022-12-25T12:25:07.240Z,98123.09
2022-12-25T12:27:41.170Z,98112.75
2022-12-25T12:30:31.845Z,98100.88
2022-12-25T12:33:02.747Z,98098.38
2022-12-25T12:35:38.107Z,98096.41
2022-12-25T12:38:19.550Z,98098.25
2022-12-25T12:40:54.454Z,98096.38
2022-12-25T12:43:41.277Z,98088.22
2022-12-25T12:46:21.561Z,98090.69
2022-12-25T12:49:07.595Z,98103.56
2022-12-25T12:51:37.132Z,98107.09
2022-12-25T12:54:25.699Z,98114.59
2022-12-25T12:57:06.945Z,98116.16
2022-12-25T12:59:44.485Z,98115.69
2022-12-25T13:02:50.782Z,98115.56
2022-12-25T13:05:55.561Z,98104.34
2022-12-25T13:08:54.699Z,98104.75
2022-12-25T13:11:24.156Z,98104.09
2022-12-25T13:13:53.052Z,98100.09
2022-12-25T13:16:29.335Z,98101.31
2022-12-25T13:18:57.248Z,98100.34
2022-12-25T13:21:29.094Z,98096.56
2022-12-25T13:24:17.044Z,98093.09
2022-12-25T13:26:44.584Z,98094.34
2022-12-25T13:29:34.217Z,98097.41
2022-12-25T13:32:04.346Z,98102.34
2022-12-25T13:34:36.550Z,98094.97
2022-12-25T13:37:16.752Z,98093.38
2022-12-25T13:39:55.630Z,98099.91
2022-12-25T13:42:27.610Z,98100.06
2022-12-25T13:44:59.344Z,98092.59
2022-12-25T13:47:30.948Z,98104.44
2022-12-25T13:49:59.839Z,98103.59
2022-12-25T13:52:37.756Z,98100.44
2022-12-25T13:55:11.574Z,98098.25
2022-12-25T13:57:45.667Z,98104.75
2022-12-25T14:00:28.226Z,98099.22
2022-12-25T14:02:55.417Z,98090.91
2022-12-25T14:05:24.270Z,98086.91
2022-12-25T14:07:53.325Z,98085.75
2022-12-25T14:10:23.531Z,98085.03
2022-12-25T14:12:51.715Z,98086.91
2022-12-25T14:15:22.101Z,98075.78
2022-12-25T14:17:51.007Z,98077.63
2022-12-25T14:20:31.508Z,98073.09
2022-12-25T14:23:00.764Z,98070.69
2022-12-25T14:25:40.590Z,98065.63
2022-12-25T14:28:17.769Z,98071.00
2022-12-25T14:30:45.521Z,98075.81
2022-12-25T14:33:23.147Z,98073.75
2022-12-25T14:35:51.312Z,98082.00
2022-12-25T14:38:33.868Z,98079.25
2022-12-25T14:41:37.607Z,98080.34
2022-12-25T14:44:27.425Z,98071.81
2022-12-25T14:47:19.880Z,98080.91
2022-12-25T14:49:48.141Z,98083.13
2022-12-25T14:52:43.350Z,98073.34
2022-12-25T14:55:22.311Z,98071.72
2022-12-25T14:58:06.122Z,98065.81
2022-12-25T15:00:38.819Z,98066.53
2022-12-25T15:03:21.084Z,98057.44
2022-12-25T15:06:04.483Z,98059.25
2022-12-25T15:08:33.174Z,98056.72
2022-12-25T15:11:02.703Z,98052.97
2022-12-25T15:13:31.441Z,98041.63
2022-12-25T15:16:15.350Z,98048.06
2022-12-25T15:18:44.443Z,98041.78
2022-12-25T15:21:31.500Z,98046.16
2022-12-25T15:24:00.082Z,98044.47
2022-12-25T15:26:30.679Z,98047.03
2022-12-25T15:28:58.547Z,98039.22
2022-12-25T15:31:31.054Z,98048.31
2022-12-25T15:34:01.675Z,98037.16
2022-12-25T15:36:29.260Z,98039.09
2022-12-25T15:38:57.029Z,98047.06
2022-12-25T15:41:50.479Z,98050.66
2022-12-25T15:44:17.569Z,98042.03
2022-12-25T15:46:45.975Z,98045.94
2022-12-25T15:49:13.921Z,98038.94
2022-12-25T15:51:41.775Z,98036.03
2022-12-25T15:54:09.869Z,98040.47
2022-12-25T15:56:43.508Z,98039.19
2022-12-25T15:59:14.161Z,98038.72
2022-12-25T16:02:00.222Z,98040.94
2022-12-25T16:04:31.283Z,98036.19
2022-12-25T16:06:59.628Z,98043.88
2022-12-25T16:09:27.610Z,98046.31
2022-12-25T16:11:54.598Z,98056.09
2022-12-25T16:14:21.861Z,98058.59
2022-12-25T16:16:48.949Z,98057.66
2022-12-25T16:19:15.942Z,98059.75
2022-12-25T16:21:46.126Z,98059.94
2022-12-25T16:24:14.014Z,98071.47
2022-12-25T16:26:41.370Z,98060.78
2022-12-25T16:29:09.166Z,98082.59
2022-12-25T16:31:37.391Z,98080.50
2022-12-25T16:34:06.055Z,98078.66
2022-12-25T16:36:34.261Z,98079.91
2022-12-25T16:39:02.646Z,98077.59
2022-12-25T16:41:29.576Z,98076.63
2022-12-25T16:43:56.526Z,98078.47
2022-12-25T16:46:23.591Z,98072.63
2022-12-25T16:48:50.653Z,98080.97
2022-12-25T16:51:20.846Z,98072.28
2022-12-25T16:53:48.549Z,98077.44
2022-12-25T16:56:20.567Z,98085.03
2022-12-25T16:58:48.192Z,98075.91
2022-12-25T17:01:19.944Z,98082.22
2022-12-25T17:03:47.705Z,98091.72
2022-12-25T17:06:22.981Z,98097.53
2022-12-25T17:08:52.120Z,98099.25
2022-12-25T17:11:27.220Z,98095.41
2022-12-25T17:13:55.333Z,98096.31
2022-12-25T17:16:29.393Z,98086.69
2022-12-25T17:19:01.350Z,98079.47
2022-12-25T17:21:30.041Z,98074.25
2022-12-25T17:24:02.367Z,98084.75
2022-12-25T17:26:32.499Z,98080.31
2022-12-25T17:29:00.122Z,98079.38
2022-12-25T17:31:27.890Z,98089.78
2022-12-25T17:33:55.068Z,98088.16
2022-12-25T17:36:22.816Z,98087.63
2022-12-25T17:38:50.227Z,98099.56
2022-12-25T17:41:18.739Z,98100.22
2022-12-25T17:43:46.572Z,98097.38
2022-12-25T17:46:20.321Z,98099.00
2022-12-25T17:48:49.935Z,98106.25
2022-12-25T17:51:21.929Z,98112.00
2022-12-25T17:53:52.280Z,98130.22
2022-12-25T17:56:20.660Z,98130.47
2022-12-25T17:58:53.652Z,98129.41
2022-12-25T18:01:22.258Z,98123.41
2022-12-25T18:03:50.371Z,98129.00
2022-12-25T18:06:21.701Z,98124.16
2022-12-25T18:08:49.728Z,98117.00
2022-12-25T18:11:21.429Z,98131.63
2022-12-25T18:13:52.057Z,98130.16
2022-12-25T18:16:22.275Z,98128.88
2022-12-25T18:18:52.615Z,98127.91
2022-12-25T18:21:21.840Z,98133.03
2022-12-25T18:23:49.393Z,98140.19
2022-12-25T18:26:16.562Z,98151.47
2022-12-25T18:28:44.019Z,98152.81
2022-12-25T18:31:15.412Z,98162.38
2022-12-25T18:33:43.241Z,98155.22
2022-12-25T18:36:15.571Z,98144.03
2022-12-25T18:38:43.132Z,98148.44
2022-12-25T18:41:10.633Z,98147.69
2022-12-25T18:43:53.461Z,98137.31
2022-12-25T18:46:25.291Z,98135.56
2022-12-25T18:48:54.812Z,98127.72
2022-12-25T18:51:21.886Z,98135.91
2022-12-25T18:53:49.001Z,98140.28
2022-12-25T18:56:18.136Z,98140.78
2022-12-25T18:58:46.762Z,98138.03
2022-12-25T19:01:22.971Z,98140.38
2022-12-25T19:03:51.467Z,98142.50
2022-12-25T19:06:25.046Z,98135.84
2022-12-25T19:08:53.512Z,98129.72
2022-12-25T19:11:21.295Z,98133.19
2022-12-25T19:13:48.999Z,98141.75
2022-12-25T19:16:16.907Z,98144.50
2022-12-25T19:18:45.408Z,98154.47
2022-12-25T19:21:13.111Z,98155.16
2022-12-25T19:23:40.623Z,98148.94
2022-12-25T19:26:09.691Z,98161.06
2022-12-25T19:28:39.272Z,98153.66
2022-12-25T19:31:09.482Z,98161.66
2022-12-25T19:33:40.775Z,98168.00
2022-12-25T19:36:12.788Z,98169.69
2022-12-25T19:38:39.745Z,98167.66
2022-12-25T19:41:18.446Z,98164.88
2022-12-25T19:43:48.524Z,98175.28
2022-12-25T19:46:22.832Z,98162.53
2022-12-25T19:48:50.153Z,98172.63
2022-12-25T19:51:27.895Z,98175.81
2022-12-25T19:53:58.447Z,98167.53
2022-12-25T19:56:27.063Z,98183.09
2022-12-25T19:58:54.453Z,98186.44
2022-12-25T20:01:23.217Z,98181.75
2022-12-25T20:03:50.783Z,98174.75
2022-12-25T20:06:25.936Z,98177.03
2022-12-25T20:08:56.499Z,98185.31
2022-12-25T20:11:25.603Z,98189.25
2022-12-25T20:13:53.261Z,98179.38
2022-12-25T20:16:20.711Z,98184.28
2022-12-25T20:18:48.279Z,98191.78
2022-12-25T20:21:17.860Z,98193.56
2022-12-25T20:23:49.276Z,98203.38
2022-12-25T20:26:18.374Z,98203.50
2022-12-25T20:28:45.892Z,98204.06
2022-12-25T20:31:36.574Z,98200.84
2022-12-25T20:34:08.049Z,98202.69
2022-12-25T20:36:37.753Z,98207.00
2022-12-25T20:39:09.501Z,98210.88
2022-12-25T20:41:38.144Z,98202.63
2022-12-25T20:44:06.772Z,98201.53
2022-12-25T20:46:34.344Z,98194.31
2022-12-25T20:49:02.237Z,98200.44
2022-12-25T20:51:29.539Z,98196.81
2022-12-25T20:53:57.251Z,98200.84
2022-12-25T20:56:25.994Z,98197.63
2022-12-25T20:58:58.841Z,98202.19
2022-12-25T21:01:27.539Z,98206.03
2022-12-25T21:03:55.457Z,98201.59
2022-12-25T21:06:23.301Z,98201.78
2022-12-25T21:08:50.671Z,98207.44
2022-12-25T21:11:18.339Z,98210.38
2022-12-25T21:13:46.161Z,98205.81
2022-12-25T21:16:22.025Z,98213.56
2022-12-25T21:18:52.233Z,98212.47
2022-12-25T21:21:20.918Z,98216.31
2022-12-25T21:23:48.251Z,98209.50
2022-12-25T21:26:31.786Z,98216.28
2022-12-25T21:29:00.729Z,98209.53
2022-12-25T21:31:29.089Z,98217.22
2022-12-25T21:33:57.660Z,98213.16
2022-12-25T21:36:31.965Z,98223.22
2022-12-25T21:39:03.418Z,98221.66
2022-12-25T21:41:32.724Z,98223.19
2022-12-25T21:44:01.535Z,98228.13
2022-12-25T21:46:29.173Z,98219.03
2022-12-25T21:48:57.503Z,98225.34
2022-12-25T21:51:46.290Z,98222.38
2022-12-25T21:54:14.225Z,98217.81
2022-12-25T21:56:46.102Z,98228.91
2022-12-25T21:59:18.679Z,98223.50
2022-12-25T22:01:46.923Z,98227.19
2022-12-25T22:04:15.827Z,98228.00
2022-12-25T22:07:02.395Z,98237.25
2022-12-25T22:09:29.837Z,98235.13
2022-12-25T22:12:16.667Z,98245.19
2022-12-25T22:14:54.997Z,98247.44
2022-12-25T22:17:44.555Z,98243.50
2022-12-25T22:20:21.696Z,98251.31
2022-12-25T22:22:49.443Z,98252.59
2022-12-25T22:25:17.718Z,98255.53
2022-12-25T22:27:47.958Z,98249.00
2022-12-25T22:30:17.999Z,98260.00
2022-12-25T22:32:46.338Z,98250.72
2022-12-25T22:35:14.197Z,98258.16
2022-12-25T22:37:42.642Z,98244.31
2022-12-25T22:40:13.683Z,98257.50
2022-12-25T22:42:41.452Z,98247.72
2022-12-25T22:45:09.594Z,98250.03
2022-12-25T22:47:36.909Z,98252.81
2022-12-25T22:50:04.806Z,98250.75
2022-12-25T22:52:32.117Z,98257.88
2022-12-25T22:54:59.543Z,98260.53
2022-12-25T22:57:26.932Z,98256.31
2022-12-25T22:59:54.299Z,98251.31
2022-12-25T23:02:22.018Z,98261.88
2022-12-25T23:04:49.602Z,98257.34
2022-12-25T23:07:17.124Z,98252.13
2022-12-25T23:09:45.015Z,98262.97
2022-12-25T23:12:32.714Z,98258.22
2022-12-25T23:15:00.102Z,98268.34
2022-12-25T23:17:46.030Z,98279.41
2022-12-25T23:20:33.336Z,98285.16
2022-12-25T23:23:19.492Z,98285.25
2022-12-25T23:26:05.875Z,98285.94
2022-12-25T23:28:51.976Z,98287.84
2022-12-25T23:31:20.976Z,98287.91
2022-12-25T23:33:48.406Z,98294.56
2022-12-25T23:36:15.765Z,98281.50
2022-12-25T23:38:43.131Z,98293.50
2022-12-25T23:41:10.484Z,98293.31
2022-12-25T23:43:37.811Z,98288.34
2022-12-25T23:46:05.392Z,98292.66
2022-12-25T23:48:32.767Z,98295.94
2022-12-25T23:51:09.306Z,98306.97
2022-12-25T23:53:36.785Z,98301.22
2022-12-25T23:56:04.385Z,98309.03
2022-12-25T23:58:33.021Z,98302.56
